Flight Track Log - Related Links

Times and Time Zones

All times are in EDT time to prevent confusion due to time zone crossing. See the JIA2342 flight status page for this flight to view local times or setup timezone preferences in your user account.

Time Position Orientation Groundspeed Altitude Reporting Facility
EDT Latitude Longitude Course Direction KTS MPH feet Rate Location/Type
Thu 07:41:36 PM 38.8333 -77.0333 61° Northeast 163 188 800  Level Potomac TRACON
Thu 07:42:36 PM 38.7833 -77.0167 165° South 225 259 2,600 1,600 Climbing Potomac TRACON
Thu 07:43:36 PM 38.8000 -76.9333 76° East 280 322 4,000 1,864 Climbing Potomac TRACON
Thu 07:44:00 PM 38.9782 -76.6602 57° Northeast  Level FlightAware Approximate
Thu 07:44:48 PM 38.8608 -76.8472 48° Northeast 278 320 6,700  Level Washington Center
Thu 07:45:00 PM 39.0271 -76.5355 67° East  Level FlightAware Approximate
Thu 07:45:48 PM 38.9014 -76.7600 59° Northeast 290 334 9,000  Level Washington Center
Thu 07:46:00 PM 39.0764 -76.4106 61° Northeast  Level FlightAware Approximate
Thu 07:46:36 PM 38.9500 -76.6833 51° Northeast 298 343 10,700  Level Potomac TRACON
Thu 07:48:48 PM 39.0353 -76.4789 62° Northeast 295 339 14,300 1,617 Climbing Washington Center
Thu 07:49:49 PM 39.0817 -76.3806 59° Northeast 307 353 15,900 1,488 Climbing Washington Center
Thu 07:50:49 PM 39.1281 -76.2819 59° Northeast 318 366 17,300 1,271 Climbing Washington Center
Thu 07:51:47 PM 39.1558 -76.1672 73° East 318 366 18,400 1,100 Climbing Washington Center
Thu 07:52:49 PM 39.1708 -76.0575 80° East 328 377 19,500 836 Climbing Washington Center
Thu 07:53:49 PM 39.1858 -75.9344 81° East 340 391 20,100 915 Climbing Washington Center
Thu 07:54:47 PM 39.2342 -75.8275 60° Northeast 340 391 21,300 1,210 Climbing Washington Center
Thu 07:55:48 PM 39.3050 -75.7364 45° Northeast 338 389 22,500 1,082 Climbing Washington Center
Thu 07:56:49 PM 39.3739 -75.6453 46° Northeast 351 404 23,500 942 Climbing Washington Center
Thu 07:57:49 PM 39.4469 -75.5539 44° Northeast 351 404 24,400 706 Climbing Washington Center
Thu 07:58:48 PM 39.5197 -75.4569 46° Northeast 356 410 24,900 500 Climbing Washington Center
Thu 07:59:49 PM 39.5944 -75.3600 45° Northeast 362 417 25,400 496 Climbing Washington Center
Thu 08:00:49 PM 39.6694 -75.2600 46° Northeast 373 429 25,900 511 Climbing Washington Center
Thu 08:01:23 PM 39.7136 -75.1994 47° Northeast 386 444 26,200 632 Climbing New York Center
Thu 08:02:24 PM 39.7972 -75.0778 48° Northeast 398 458 26,900 595 Climbing New York Center
Thu 08:03:24 PM 39.8722 -74.9661 49° Northeast 403 464 27,400 513 Climbing New York Center
Thu 08:04:21 PM 39.9464 -74.8675 46° Northeast 396 456 27,900 508 Climbing New York Center
Thu 08:05:22 PM 40.0292 -74.7667 43° Northeast 396 456 28,400 443 Climbing New York Center
Thu 08:06:23 PM 40.1031 -74.6786 42° Northeast 401 461 28,800 298 Climbing New York Center
Thu 08:07:23 PM 40.1961 -74.5697 42° Northeast 401 461 29,000 100 Climbing New York Center
Thu 08:08:23 PM 40.2850 -74.4658 42° Northeast 401 461 29,000 -153 Level New York Center
Thu 08:09:21 PM 40.3694 -74.3642 43° Northeast 406 467 28,700 -750 Descending New York Center
Thu 08:10:23 PM 40.4603 -74.2544 43° Northeast 416 479 27,500 -1,150 Descending New York Center
Thu 08:11:21 PM 40.5531 -74.1444 42° Northeast 428 493 26,400 -1,109 Descending New York Center
Thu 08:12:22 PM 40.6478 -74.0342 41° Northeast 433 498 25,300 -1,073 Descending New York Center
Thu 08:13:24 PM 40.7361 -73.9233 44° Northeast 434 499 24,200 -650 Descending New York Center
Thu 08:14:22 PM 40.8200 -73.8314 40° Northeast 434 499 24,000 -75 Descending New York Center
Thu 08:16:04 PM 40.9664 -73.6386 45° Northeast 434 499 24,000 -222 Level Boston Center
Thu 08:17:04 PM 41.0717 -73.5358 36° Northeast 429 494 23,400 -850 Descending Boston Center
Thu 08:18:04 PM 41.1889 -73.4911 16° North 418 481 22,300 -1,050 Descending Boston Center
Thu 08:19:04 PM 41.3058 -73.4458 16° North 418 481 21,300 -1,250 Descending Boston Center
Thu 08:20:04 PM 41.4247 -73.4422 North 432 497 19,800 -1,600 Descending Boston Center
Thu 08:21:04 PM 41.5225 -73.4578 353° North 414 476 18,100 -1,500 Descending Boston Center
Thu 08:22:04 PM 41.6392 -73.4706 355° North 395 455 16,800 -1,250 Descending Boston Center
Thu 08:23:04 PM 41.7350 -73.4806 356° North 381 438 15,600 -1,318 Descending Boston Center
Thu 08:24:16 PM 41.8703 -73.4967 355° North 381 438 13,900 -1,409 Descending Boston Center
Thu 08:25:16 PM 41.9722 -73.5094 355° North 376 433 12,500 -1,350 Descending Boston Center
Thu 08:26:16 PM 42.0722 -73.5253 353° North 366 421 11,200 -807 Descending Boston Center
Thu 08:27:15 PM 42.1592 -73.5717 338° Northwest 340 391 10,900 -550 Descending Boston Center
Thu 08:28:16 PM 42.2422 -73.6178 338° Northwest 329 379 10,100 -984 Descending Boston Center
Thu 08:28:16 PM 42.2422 -73.6178 338° Northwest 295 339 9,900 -2,597 Descending Boston Center
Thu 08:29:23 PM 42.3189 -73.6642 336° Northwest 265 305 7,200 -2,409 Descending Boston Center
Thu 08:30:23 PM 42.3872 -73.7022 338° Northwest 263 303 4,800 -1,701 Descending Boston Center
Thu 08:31:30 PM 42.4556 -73.7431 336° Northwest 236 272 3,600 -844 Descending Boston Center
Thu 08:32:31 PM 42.5114 -73.7722 339° North 206 237 3,000 -295 Descending Boston Center
Thu 08:33:32 PM 42.5653 -73.8017 338° Northwest 210 242 3,000 -298 Level Boston Center
Thu 08:34:32 PM 42.6236 -73.8031 359° North 204 235 2,400 -600 Descending Boston Center

Login

Don't have an account? Register now (free) for customized features, flight alerts, and more!